Terminal Aerodrome Forecast
Issued by NWS

Home | Current Version | Previous Version | Text Only | Print | Product List | Glossary On
Versions: 1 2 3 4 5 6 7 8 9 10 11 12 13 14 15 16 17 18 19 20 21 22 23 24 25 26 27 28
000
FTAK31 PANC 021738
TAFAVD
TAF
PAVD 021738Z 0218/0318 23004KT 5SM -SHRA BR SCT005 BKN015
      TEMPO 0218/0220 P6SM -SHRA SCT015 OVC030
     FM022100 25006KT P6SM -SHRA SCT015 BKN040
     FM030600 VRB03KT 5SM -SHRA BR BKN015
      AMD LTD TO CLD VIS AND WIND=

USA.gov is the U.S. government's official web portal to all federal, state and local government web resources and services.